createdAt,value
2023-05-07T00:00:11.081Z,1023.15
2023-05-07T00:01:10.783Z,1023.14
2023-05-07T00:02:10.783Z,1023.13
2023-05-07T00:03:10.945Z,1023.13
2023-05-07T00:04:11.009Z,1023.12
2023-05-07T00:05:11.114Z,1023.13
2023-05-07T00:06:10.782Z,1023.13
2023-05-07T00:07:10.781Z,1023.1
2023-05-07T00:08:10.784Z,1023.13
2023-05-07T00:09:10.778Z,1023.08
2023-05-07T00:10:10.928Z,1023.08
2023-05-07T00:11:10.775Z,1023.05
2023-05-07T00:12:10.795Z,1023.04
2023-05-07T00:13:10.878Z,1023.04
2023-05-07T00:14:10.774Z,1023.04
2023-05-07T00:15:11.140Z,1023.02
2023-05-07T00:16:10.821Z,1023.04
2023-05-07T00:17:10.774Z,1023
2023-05-07T00:18:10.783Z,1023.06
2023-05-07T00:19:10.780Z,1023.06
2023-05-07T00:20:11.000Z,1023.04
2023-05-07T00:21:10.776Z,1023.01
2023-05-07T00:22:10.764Z,1023
2023-05-07T00:23:10.792Z,1023.04
2023-05-07T00:24:10.784Z,1022.98
2023-05-07T00:25:10.763Z,1023.02
2023-05-07T00:26:10.776Z,1022.97
2023-05-07T00:27:10.777Z,1023
2023-05-07T00:28:10.796Z,1023.02
2023-05-07T00:29:10.788Z,1023.04
2023-05-07T00:30:11.017Z,1023.1
2023-05-07T00:31:10.779Z,1023.06
2023-05-07T00:32:10.854Z,1023.11
2023-05-07T00:33:10.918Z,1023.1
2023-05-07T00:34:10.784Z,1023.16
2023-05-07T00:35:11.116Z,1023.16
2023-05-07T00:36:10.797Z,1023.15
2023-05-07T00:37:10.784Z,1023.16
2023-05-07T00:38:10.796Z,1023.16
2023-05-07T00:39:10.803Z,1023.13
2023-05-07T00:40:10.987Z,1023.13
2023-05-07T00:41:10.770Z,1023.11
2023-05-07T00:42:10.779Z,1023.11
2023-05-07T00:43:10.786Z,1023.1
2023-05-07T00:44:10.778Z,1023.12
2023-05-07T00:45:10.795Z,1023.14
2023-05-07T00:46:10.790Z,1023.12
2023-05-07T00:47:10.773Z,1023.17
2023-05-07T00:48:10.779Z,1023.14
2023-05-07T00:49:10.782Z,1023.15
2023-05-07T00:50:10.921Z,1023.23
2023-05-07T00:51:10.775Z,1023.2
2023-05-07T00:52:10.773Z,1023.25
2023-05-07T00:53:10.784Z,1023.24
2023-05-07T00:54:10.771Z,1023.27
2023-05-07T00:55:10.994Z,1023.25
2023-05-07T00:56:10.773Z,1023.26
2023-05-07T00:57:10.779Z,1023.26
2023-05-07T00:58:10.799Z,1023.26
2023-05-07T00:59:10.814Z,1023.26
2023-05-07T01:00:10.992Z,1023.23
2023-05-07T01:01:10.807Z,1023.21
2023-05-07T01:02:10.785Z,1023.2
2023-05-07T01:03:10.804Z,1023.2
2023-05-07T01:04:10.816Z,1023.19
2023-05-07T01:05:10.778Z,1023.19
2023-05-07T01:06:10.782Z,1023.17
2023-05-07T01:07:10.780Z,1023.17
2023-05-07T01:08:10.791Z,1023.18
2023-05-07T01:09:10.776Z,1023.18
2023-05-07T01:10:11.042Z,1023.2
2023-05-07T01:11:10.791Z,1023.21
2023-05-07T01:12:10.780Z,1023.21
2023-05-07T01:13:10.861Z,1023.2
2023-05-07T01:14:10.794Z,1023.24
2023-05-07T01:15:10.822Z,1023.2
2023-05-07T01:16:10.774Z,1023.21
2023-05-07T01:17:10.873Z,1023.26
2023-05-07T01:18:10.830Z,1023.25
2023-05-07T01:19:10.781Z,1023.24
2023-05-07T01:20:10.971Z,1023.25
2023-05-07T01:21:10.782Z,1023.29
2023-05-07T01:22:10.777Z,1023.3
2023-05-07T01:23:10.796Z,1023.27
2023-05-07T01:24:10.776Z,1023.28
2023-05-07T01:25:10.786Z,1023.29
2023-05-07T01:26:10.779Z,1023.3
2023-05-07T01:27:10.777Z,1023.31
2023-05-07T01:28:10.790Z,1023.34
2023-05-07T01:29:10.785Z,1023.31
2023-05-07T01:30:11.025Z,1023.3
2023-05-07T01:31:10.779Z,1023.28
2023-05-07T01:32:10.773Z,1023.3
2023-05-07T01:33:10.802Z,1023.33
2023-05-07T01:34:10.766Z,1023.34
2023-05-07T01:35:10.778Z,1023.29
2023-05-07T01:36:10.766Z,1023.34
2023-05-07T01:37:10.773Z,1023.33
2023-05-07T01:38:10.789Z,1023.3
2023-05-07T01:39:10.791Z,1023.34
2023-05-07T01:40:10.948Z,1023.38
2023-05-07T01:41:10.784Z,1023.42
2023-05-07T01:42:10.765Z,1023.39
2023-05-07T01:43:10.802Z,1023.4
2023-05-07T01:44:10.773Z,1023.41
2023-05-07T01:45:10.792Z,1023.38
2023-05-07T01:46:10.813Z,1023.38
2023-05-07T01:47:10.770Z,1023.38
2023-05-07T01:48:10.789Z,1023.39
2023-05-07T01:49:10.774Z,1023.36
2023-05-07T01:50:11.110Z,1023.37
2023-05-07T01:51:10.770Z,1023.36
2023-05-07T01:52:10.774Z,1023.33
2023-05-07T01:53:10.784Z,1023.31
2023-05-07T01:54:10.768Z,1023.25
2023-05-07T01:55:10.776Z,1023.27
2023-05-07T01:56:10.775Z,1023.25
2023-05-07T01:57:10.772Z,1023.29
2023-05-07T01:58:10.785Z,1023.35
2023-05-07T01:59:10.776Z,1023.35
2023-05-07T02:00:10.934Z,1023.35
2023-05-07T02:01:10.779Z,1023.35
2023-05-07T02:02:10.847Z,1023.35
2023-05-07T02:03:10.866Z,1023.35
2023-05-07T02:04:10.828Z,1023.35
2023-05-07T02:05:10.767Z,1023.38
2023-05-07T02:06:10.782Z,1023.4
2023-05-07T02:07:10.775Z,1023.43
2023-05-07T02:08:10.793Z,1023.41
2023-05-07T02:09:10.772Z,1023.42
2023-05-07T02:10:10.941Z,1023.43
2023-05-07T02:11:10.774Z,1023.38
2023-05-07T02:12:10.782Z,1023.39
2023-05-07T02:13:10.887Z,1023.38
2023-05-07T02:14:10.773Z,1023.4
2023-05-07T02:15:10.795Z,1023.38
2023-05-07T02:16:10.833Z,1023.42
2023-05-07T02:17:10.795Z,1023.37
2023-05-07T02:18:10.794Z,1023.36
2023-05-07T02:19:10.782Z,1023.36
2023-05-07T02:20:10.993Z,1023.31
2023-05-07T02:21:10.780Z,1023.37
2023-05-07T02:22:10.766Z,1023.38
2023-05-07T02:23:10.795Z,1023.42
2023-05-07T02:24:10.777Z,1023.43
2023-05-07T02:25:10.787Z,1023.45
2023-05-07T02:26:10.776Z,1023.47
2023-05-07T02:27:10.786Z,1023.45
2023-05-07T02:28:10.788Z,1023.4
2023-05-07T02:29:10.773Z,1023.4
2023-05-07T02:30:11.116Z,1023.39
2023-05-07T02:31:10.793Z,1023.39
2023-05-07T02:32:10.906Z,1023.46
2023-05-07T02:33:10.892Z,1023.41
2023-05-07T02:34:10.777Z,1023.42
2023-05-07T02:35:10.769Z,1023.43
2023-05-07T02:36:10.775Z,1023.39
2023-05-07T02:37:10.771Z,1023.45
2023-05-07T02:38:10.802Z,1023.43
2023-05-07T02:39:10.771Z,1023.45
2023-05-07T02:40:11.046Z,1023.46
2023-05-07T02:41:10.788Z,1023.49
2023-05-07T02:42:10.785Z,1023.52
2023-05-07T02:43:10.795Z,1023.56
2023-05-07T02:44:10.787Z,1023.54
2023-05-07T02:45:10.791Z,1023.58
2023-05-07T02:46:10.826Z,1023.59
2023-05-07T02:47:10.779Z,1023.59
2023-05-07T02:48:10.810Z,1023.64
2023-05-07T02:49:10.773Z,1023.63
2023-05-07T02:50:10.924Z,1023.61
2023-05-07T02:51:10.776Z,1023.56
2023-05-07T02:52:10.766Z,1023.54
2023-05-07T02:53:10.802Z,1023.53
2023-05-07T02:54:10.781Z,1023.51
2023-05-07T02:55:10.773Z,1023.52
2023-05-07T02:56:10.769Z,1023.51
2023-05-07T02:57:10.772Z,1023.53
2023-05-07T02:58:10.790Z,1023.51
2023-05-07T02:59:10.781Z,1023.48
2023-05-07T03:00:10.977Z,1023.51
2023-05-07T03:01:10.797Z,1023.51
2023-05-07T03:02:10.783Z,1023.51
2023-05-07T03:03:10.864Z,1023.53
2023-05-07T03:04:10.816Z,1023.46
2023-05-07T03:05:10.773Z,1023.47
2023-05-07T03:06:10.788Z,1023.46
2023-05-07T03:07:10.778Z,1023.45
2023-05-07T03:08:10.841Z,1023.44
2023-05-07T03:09:10.774Z,1023.42
2023-05-07T03:10:10.958Z,1023.41
2023-05-07T03:11:10.771Z,1023.42
2023-05-07T03:12:10.776Z,1023.41
2023-05-07T03:13:10.911Z,1023.42
2023-05-07T03:14:10.817Z,1023.41
2023-05-07T03:15:10.786Z,1023.45
2023-05-07T03:16:10.818Z,1023.49
2023-05-07T03:17:10.770Z,1023.49
2023-05-07T03:18:10.879Z,1023.48
2023-05-07T03:19:10.771Z,1023.53
2023-05-07T03:20:11.391Z,1023.54
2023-05-07T03:21:10.762Z,1023.54
2023-05-07T03:22:10.781Z,1023.57
2023-05-07T03:23:10.780Z,1023.57
2023-05-07T03:24:10.785Z,1023.59
2023-05-07T03:25:10.765Z,1023.63
2023-05-07T03:26:10.781Z,1023.66
2023-05-07T03:27:10.781Z,1023.66
2023-05-07T03:28:10.786Z,1023.69
2023-05-07T03:29:10.771Z,1023.68
2023-05-07T03:30:11.109Z,1023.66
2023-05-07T03:31:10.762Z,1023.72
2023-05-07T03:32:10.775Z,1023.72
2023-05-07T03:33:10.787Z,1023.71
2023-05-07T03:34:10.793Z,1023.7
2023-05-07T03:35:10.784Z,1023.69
2023-05-07T03:36:10.764Z,1023.71
2023-05-07T03:37:10.771Z,1023.65
2023-05-07T03:38:10.804Z,1023.66
2023-05-07T03:39:10.775Z,1023.65
2023-05-07T03:40:11.030Z,1023.69
2023-05-07T03:41:10.769Z,1023.68
2023-05-07T03:42:10.764Z,1023.7
2023-05-07T03:43:10.810Z,1023.71
2023-05-07T03:44:10.774Z,1023.72
2023-05-07T03:45:10.814Z,1023.71
2023-05-07T03:46:10.821Z,1023.76
2023-05-07T03:47:10.776Z,1023.8
2023-05-07T03:48:10.833Z,1023.81
2023-05-07T03:49:10.768Z,1023.81
2023-05-07T03:50:10.929Z,1023.83
2023-05-07T03:51:10.763Z,1023.83
2023-05-07T03:52:10.769Z,1023.83
2023-05-07T03:53:10.802Z,1023.78
2023-05-07T03:54:10.771Z,1023.78
2023-05-07T03:55:10.775Z,1023.78
2023-05-07T03:56:10.778Z,1023.82
2023-05-07T03:57:10.793Z,1023.78
2023-05-07T03:58:10.802Z,1023.81
2023-05-07T03:59:10.778Z,1023.78
2023-05-07T04:00:10.991Z,1023.85
2023-05-07T04:01:10.780Z,1023.85
2023-05-07T04:02:10.829Z,1023.86
2023-05-07T04:03:10.857Z,1023.84
2023-05-07T04:04:10.793Z,1023.81
2023-05-07T04:05:10.778Z,1023.83
2023-05-07T04:06:10.775Z,1023.81
2023-05-07T04:07:10.772Z,1023.81
2023-05-07T04:08:10.794Z,1023.84
2023-05-07T04:09:10.797Z,1023.84
2023-05-07T04:10:10.932Z,1023.84
2023-05-07T04:11:10.773Z,1023.84
2023-05-07T04:12:10.778Z,1023.83
2023-05-07T04:13:10.834Z,1023.86
2023-05-07T04:14:10.771Z,1023.83
2023-05-07T04:15:10.793Z,1023.87
2023-05-07T04:16:10.855Z,1023.91
2023-05-07T04:17:10.773Z,1023.89
2023-05-07T04:18:10.795Z,1023.88
2023-05-07T04:19:10.793Z,1023.85
2023-05-07T04:20:10.928Z,1023.88
2023-05-07T04:21:11.483Z,1023.88
2023-05-07T04:22:10.781Z,1023.89
2023-05-07T04:23:10.805Z,1023.87
2023-05-07T04:24:10.781Z,1023.87
2023-05-07T04:25:10.785Z,1023.88
2023-05-07T04:26:10.778Z,1023.9
2023-05-07T04:27:10.787Z,1023.85
2023-05-07T04:28:10.804Z,1023.89
2023-05-07T04:29:10.774Z,1023.88
2023-05-07T04:30:10.955Z,1023.84
2023-05-07T04:31:10.774Z,1023.88
2023-05-07T04:32:10.942Z,1023.88
2023-05-07T04:33:10.912Z,1023.88
2023-05-07T04:34:10.777Z,1023.89
2023-05-07T04:35:10.781Z,1023.91
2023-05-07T04:36:10.773Z,1023.88
2023-05-07T04:37:10.774Z,1023.88
2023-05-07T04:38:10.794Z,1023.89
2023-05-07T04:39:10.775Z,1023.89
2023-05-07T04:40:11.015Z,1023.86
2023-05-07T04:41:10.768Z,1023.87
2023-05-07T04:42:10.773Z,1023.84
2023-05-07T04:43:10.783Z,1023.85
2023-05-07T04:44:10.789Z,1023.85
2023-05-07T04:45:10.788Z,1023.87
2023-05-07T04:46:10.814Z,1023.89
2023-05-07T04:47:10.777Z,1023.91
2023-05-07T04:48:10.797Z,1023.9
2023-05-07T04:49:10.763Z,1023.92
2023-05-07T04:50:10.956Z,1023.91
2023-05-07T04:51:10.778Z,1023.91
2023-05-07T04:52:10.767Z,1023.91
2023-05-07T04:53:10.780Z,1023.91
2023-05-07T04:54:10.776Z,1023.92
2023-05-07T04:55:10.781Z,1023.96
2023-05-07T04:56:10.771Z,1023.98
2023-05-07T04:57:10.773Z,1023.97
2023-05-07T04:58:10.789Z,1024.05
2023-05-07T04:59:10.790Z,1024.06
2023-05-07T05:00:11.120Z,1024.08
2023-05-07T05:01:10.794Z,1024.05
2023-05-07T05:02:10.781Z,1024.1
2023-05-07T05:03:10.884Z,1024.09
2023-05-07T05:04:10.819Z,1024.1
2023-05-07T05:05:10.785Z,1024.09
2023-05-07T05:06:10.790Z,1024.06
2023-05-07T05:07:10.768Z,1024.08
2023-05-07T05:08:10.800Z,1024.1
2023-05-07T05:09:10.783Z,1024.08
2023-05-07T05:10:10.908Z,1024.07
2023-05-07T05:11:10.809Z,1024.11
2023-05-07T05:12:10.778Z,1024.16
2023-05-07T05:13:10.832Z,1024.12
2023-05-07T05:14:10.776Z,1024.12
2023-05-07T05:15:10.786Z,1024.12
2023-05-07T05:16:10.789Z,1024.16
2023-05-07T05:17:10.774Z,1024.12
2023-05-07T05:18:10.806Z,1024.19
2023-05-07T05:19:10.775Z,1024.22
2023-05-07T05:20:11.030Z,1024.27
2023-05-07T05:21:10.780Z,1024.23
2023-05-07T05:22:10.790Z,1024.27
2023-05-07T05:23:10.794Z,1024.34
2023-05-07T05:24:10.777Z,1024.34
2023-05-07T05:25:10.776Z,1024.32
2023-05-07T05:26:10.787Z,1024.36
2023-05-07T05:27:10.775Z,1024.33
2023-05-07T05:28:10.788Z,1024.36
2023-05-07T05:29:10.786Z,1024.39
2023-05-07T05:30:11.145Z,1024.37
2023-05-07T05:31:10.801Z,1024.38
2023-05-07T05:32:10.775Z,1024.41
2023-05-07T05:33:10.811Z,1024.4
2023-05-07T05:34:10.777Z,1024.42
2023-05-07T05:35:10.775Z,1024.44
2023-05-07T05:36:10.785Z,1024.46
2023-05-07T05:37:10.782Z,1024.45
2023-05-07T05:38:10.792Z,1024.51
2023-05-07T05:39:10.784Z,1024.49
2023-05-07T05:40:10.968Z,1024.53
2023-05-07T05:41:10.779Z,1024.59
2023-05-07T05:42:10.777Z,1024.56
2023-05-07T05:43:10.802Z,1024.54
2023-05-07T05:44:10.782Z,1024.55
2023-05-07T05:45:10.804Z,1024.56
2023-05-07T05:46:10.849Z,1024.53
2023-05-07T05:47:10.779Z,1024.55
2023-05-07T05:48:10.882Z,1024.54
2023-05-07T05:49:10.780Z,1024.53
2023-05-07T05:50:11.021Z,1024.51
2023-05-07T05:51:10.777Z,1024.51
2023-05-07T05:52:11.657Z,1024.51
2023-05-07T05:53:10.798Z,1024.53
2023-05-07T05:54:10.773Z,1024.5
2023-05-07T05:55:10.775Z,1024.51
2023-05-07T05:56:10.779Z,1024.49
2023-05-07T05:57:10.781Z,1024.49
2023-05-07T05:58:10.806Z,1024.5
2023-05-07T05:59:10.851Z,1024.51
2023-05-07T06:00:11.097Z,1024.5
2023-05-07T06:01:10.788Z,1024.51
2023-05-07T06:02:10.837Z,1024.5
2023-05-07T06:03:10.846Z,1024.49
2023-05-07T06:04:10.795Z,1024.51
2023-05-07T06:05:10.870Z,1024.46
2023-05-07T06:06:10.792Z,1024.5
2023-05-07T06:07:10.793Z,1024.5
2023-05-07T06:08:10.784Z,1024.5
2023-05-07T06:09:10.790Z,1024.47
2023-05-07T06:10:11.010Z,1024.47
2023-05-07T06:11:10.788Z,1024.47
2023-05-07T06:12:10.773Z,1024.51
2023-05-07T06:13:10.828Z,1024.54
2023-05-07T06:14:10.814Z,1024.54
2023-05-07T06:15:10.796Z,1024.55
2023-05-07T06:16:10.790Z,1024.61
2023-05-07T06:17:10.783Z,1024.61
2023-05-07T06:18:10.818Z,1024.63
2023-05-07T06:19:10.762Z,1024.67
2023-05-07T06:20:10.990Z,1024.68
2023-05-07T06:21:10.779Z,1024.68
2023-05-07T06:22:10.805Z,1024.71
2023-05-07T06:23:10.787Z,1024.75
2023-05-07T06:24:10.773Z,1024.77
2023-05-07T06:25:10.769Z,1024.79
2023-05-07T06:26:10.786Z,1024.79
2023-05-07T06:27:10.785Z,1024.81
2023-05-07T06:28:10.790Z,1024.81
2023-05-07T06:29:10.786Z,1024.81
2023-05-07T06:30:10.977Z,1024.82
2023-05-07T06:31:10.786Z,1024.81
2023-05-07T06:32:10.811Z,1024.88
2023-05-07T06:33:10.856Z,1024.87
2023-05-07T06:34:10.775Z,1024.84
2023-05-07T06:35:10.774Z,1024.84
2023-05-07T06:36:10.785Z,1024.88
2023-05-07T06:37:10.774Z,1024.87
2023-05-07T06:38:10.791Z,1024.92
2023-05-07T06:39:10.783Z,1024.94
2023-05-07T06:40:11.016Z,1024.92
2023-05-07T06:41:10.773Z,1024.98
2023-05-07T06:42:10.766Z,1024.98
2023-05-07T06:43:10.786Z,1025
2023-05-07T06:44:10.780Z,1024.96
2023-05-07T06:45:10.784Z,1025.01
2023-05-07T06:46:10.806Z,1024.99
2023-05-07T06:47:10.780Z,1025.08
2023-05-07T06:48:10.793Z,1025.05
2023-05-07T06:49:10.779Z,1025.07
2023-05-07T06:50:10.998Z,1025.07
2023-05-07T06:51:10.778Z,1025.08
2023-05-07T06:52:10.788Z,1025.08
2023-05-07T06:53:10.796Z,1025.12
2023-05-07T06:54:10.777Z,1025.14
2023-05-07T06:55:10.786Z,1025.14
2023-05-07T06:56:10.781Z,1025.14
2023-05-07T06:57:10.778Z,1025.14
2023-05-07T06:58:10.815Z,1025.13
2023-05-07T06:59:10.784Z,1025.14
2023-05-07T07:00:11.108Z,1025.17
2023-05-07T07:01:10.841Z,1025.12
2023-05-07T07:02:10.813Z,1025.15
2023-05-07T07:03:10.862Z,1025.16
2023-05-07T07:04:10.848Z,1025.21
2023-05-07T07:05:10.793Z,1025.17
2023-05-07T07:06:10.777Z,1025.22
2023-05-07T07:07:10.767Z,1025.16
2023-05-07T07:08:10.794Z,1025.16
2023-05-07T07:09:10.779Z,1025.14
2023-05-07T07:10:11.074Z,1025.16
2023-05-07T07:11:10.774Z,1025.17
2023-05-07T07:12:10.782Z,1025.14
2023-05-07T07:13:10.820Z,1025.13
2023-05-07T07:14:10.790Z,1025.17
2023-05-07T07:15:10.798Z,1025.17
2023-05-07T07:16:10.790Z,1025.14
2023-05-07T07:17:10.785Z,1025.15
2023-05-07T07:18:10.827Z,1025.16
2023-05-07T07:19:10.782Z,1025.16
2023-05-07T07:20:12.081Z,1025.14
2023-05-07T07:21:10.778Z,1025.15
2023-05-07T07:22:10.774Z,1025.15
2023-05-07T07:23:10.792Z,1025.12
2023-05-07T07:24:10.771Z,1025.13
2023-05-07T07:25:11.223Z,1025.11
2023-05-07T07:26:10.791Z,1025.12
2023-05-07T07:27:10.778Z,1025.14
2023-05-07T07:28:10.798Z,1025.08
2023-05-07T07:29:10.775Z,1025.05
2023-05-07T07:30:11.028Z,1025.08
2023-05-07T07:31:10.837Z,1025.1
2023-05-07T07:32:10.788Z,1025.08
2023-05-07T07:33:10.830Z,1025.11
2023-05-07T07:34:10.777Z,1025.1
2023-05-07T07:35:10.768Z,1025.13
2023-05-07T07:36:10.769Z,1025.2
2023-05-07T07:37:10.771Z,1025.16
2023-05-07T07:38:10.804Z,1025.23
2023-05-07T07:39:10.771Z,1025.23
2023-05-07T07:40:10.882Z,1025.21
2023-05-07T07:41:10.782Z,1025.23
2023-05-07T07:42:10.766Z,1025.25
2023-05-07T07:43:10.798Z,1025.26
2023-05-07T07:44:10.781Z,1025.22
2023-05-07T07:45:10.812Z,1025.27
2023-05-07T07:46:10.762Z,1025.26
2023-05-07T07:47:10.896Z,1025.32
2023-05-07T07:48:10.811Z,1025.28
2023-05-07T07:49:10.779Z,1025.32
2023-05-07T07:50:10.989Z,1025.33
2023-05-07T07:51:10.781Z,1025.36
2023-05-07T07:52:10.783Z,1025.36
2023-05-07T07:53:10.793Z,1025.38
2023-05-07T07:54:10.795Z,1025.37
2023-05-07T07:55:10.775Z,1025.39
2023-05-07T07:56:10.780Z,1025.34
2023-05-07T07:57:10.788Z,1025.4
2023-05-07T07:58:10.790Z,1025.39
2023-05-07T07:59:10.768Z,1025.39
2023-05-07T08:00:10.973Z,1025.43
2023-05-07T08:01:10.771Z,1025.39
2023-05-07T08:02:10.831Z,1025.46
2023-05-07T08:03:10.910Z,1025.44
2023-05-07T08:04:10.868Z,1025.43
2023-05-07T08:05:10.776Z,1025.45
2023-05-07T08:06:10.774Z,1025.45
2023-05-07T08:07:10.776Z,1025.48
2023-05-07T08:08:10.798Z,1025.47
2023-05-07T08:09:10.769Z,1025.47
2023-05-07T08:10:10.955Z,1025.44
2023-05-07T08:11:10.775Z,1025.48
2023-05-07T08:12:10.765Z,1025.49
2023-05-07T08:13:10.821Z,1025.48
2023-05-07T08:14:10.776Z,1025.48
2023-05-07T08:15:10.783Z,1025.51
2023-05-07T08:16:10.772Z,1025.52
2023-05-07T08:17:10.835Z,1025.56
2023-05-07T08:18:10.825Z,1025.57
2023-05-07T08:19:10.776Z,1025.53
2023-05-07T08:20:10.992Z,1025.55
2023-05-07T08:21:10.777Z,1025.53
2023-05-07T08:22:10.780Z,1025.51
2023-05-07T08:23:10.820Z,1025.49
2023-05-07T08:24:10.778Z,1025.52
2023-05-07T08:25:10.772Z,1025.51
2023-05-07T08:26:10.790Z,1025.5
2023-05-07T08:27:10.823Z,1025.53
2023-05-07T08:28:10.798Z,1025.52
2023-05-07T08:29:10.774Z,1025.5
2023-05-07T08:30:11.065Z,1025.49
2023-05-07T08:31:10.792Z,1025.51
2023-05-07T08:32:10.794Z,1025.52
2023-05-07T08:33:10.933Z,1025.49
2023-05-07T08:34:10.807Z,1025.52
2023-05-07T08:35:10.829Z,1025.51
2023-05-07T08:36:10.775Z,1025.54
2023-05-07T08:37:10.777Z,1025.48
2023-05-07T08:38:10.796Z,1025.49
2023-05-07T08:39:10.794Z,1025.49
2023-05-07T08:40:14.963Z,1025.56
2023-05-07T08:41:10.779Z,1025.55
2023-05-07T08:42:10.774Z,1025.53
2023-05-07T08:43:10.799Z,1025.52
2023-05-07T08:44:10.781Z,1025.48
2023-05-07T08:45:10.792Z,1025.53
2023-05-07T08:46:10.812Z,1025.5
2023-05-07T08:47:10.783Z,1025.46
2023-05-07T08:48:10.870Z,1025.42
2023-05-07T08:49:10.792Z,1025.38
2023-05-07T08:50:10.999Z,1025.38
2023-05-07T08:51:10.777Z,1025.4
2023-05-07T08:52:10.777Z,1025.4
2023-05-07T08:53:10.788Z,1025.39
2023-05-07T08:54:10.790Z,1025.36
2023-05-07T08:55:11.184Z,1025.38
2023-05-07T08:56:10.785Z,1025.32
2023-05-07T08:57:10.778Z,1025.31
2023-05-07T08:58:10.798Z,1025.34
2023-05-07T08:59:10.782Z,1025.34
2023-05-07T09:00:10.781Z,1025.34
2023-05-07T09:01:10.777Z,1025.39
2023-05-07T09:02:10.841Z,1025.35
2023-05-07T09:03:10.896Z,1025.42
2023-05-07T09:04:10.885Z,1025.45
2023-05-07T09:05:11.098Z,1025.45
2023-05-07T09:06:10.786Z,1025.5
2023-05-07T09:07:10.772Z,1025.52
2023-05-07T09:08:10.811Z,1025.55
2023-05-07T09:09:10.780Z,1025.5
2023-05-07T09:10:10.906Z,1025.47
2023-05-07T09:11:10.781Z,1025.49
2023-05-07T09:12:10.776Z,1025.46
2023-05-07T09:13:10.812Z,1025.5
2023-05-07T09:14:10.785Z,1025.49
2023-05-07T09:15:11.009Z,1025.48
2023-05-07T09:16:10.823Z,1025.52
2023-05-07T09:17:10.782Z,1025.54
2023-05-07T09:18:10.783Z,1025.58
2023-05-07T09:19:10.785Z,1025.54
2023-05-07T09:20:11.228Z,1025.54
2023-05-07T09:21:10.770Z,1025.59
2023-05-07T09:22:10.773Z,1025.6
2023-05-07T09:23:10.781Z,1025.59
2023-05-07T09:24:10.793Z,1025.67
2023-05-07T09:25:11.061Z,1025.7
2023-05-07T09:26:10.784Z,1025.64
2023-05-07T09:27:10.782Z,1025.63
2023-05-07T09:28:10.782Z,1025.64
2023-05-07T09:29:10.768Z,1025.63
2023-05-07T09:30:10.768Z,1025.67
2023-05-07T09:31:10.804Z,1025.63
2023-05-07T09:32:10.784Z,1025.64
2023-05-07T09:33:10.842Z,1025.66
2023-05-07T09:34:10.794Z,1025.62
2023-05-07T09:35:10.918Z,1025.62
2023-05-07T09:36:10.763Z,1025.63
2023-05-07T09:37:10.770Z,1025.67
2023-05-07T09:38:10.790Z,1025.64
2023-05-07T09:39:10.776Z,1025.69
2023-05-07T09:40:10.761Z,1025.7
2023-05-07T09:41:10.775Z,1025.69
2023-05-07T09:42:10.775Z,1025.69
2023-05-07T09:43:10.791Z,1025.72
2023-05-07T09:44:10.773Z,1025.78
2023-05-07T09:45:11.069Z,1025.79
2023-05-07T09:46:10.809Z,1025.79
2023-05-07T09:47:10.778Z,1025.8
2023-05-07T09:48:10.831Z,1025.79
2023-05-07T09:49:11.213Z,1025.78
2023-05-07T09:50:10.768Z,1025.8
2023-05-07T09:51:10.782Z,1025.81
2023-05-07T09:52:10.810Z,1025.81
2023-05-07T09:53:10.802Z,1025.77
2023-05-07T09:54:10.768Z,1025.73
2023-05-07T09:55:10.964Z,1025.76
2023-05-07T09:56:10.775Z,1025.75
2023-05-07T09:57:10.779Z,1025.76
2023-05-07T09:58:10.781Z,1025.76
2023-05-07T09:59:10.779Z,1025.73
2023-05-07T10:00:10.781Z,1025.79
2023-05-07T10:01:10.825Z,1025.76
2023-05-07T10:02:10.778Z,1025.82
2023-05-07T10:03:10.865Z,1025.76
2023-05-07T10:04:10.769Z,1025.78
2023-05-07T10:05:10.972Z,1025.72
2023-05-07T10:06:10.778Z,1025.72
2023-05-07T10:07:10.769Z,1025.69
2023-05-07T10:08:10.787Z,1025.7
2023-05-07T10:09:10.774Z,1025.68
2023-05-07T10:10:10.767Z,1025.72
2023-05-07T10:11:10.776Z,1025.68
2023-05-07T10:12:10.842Z,1025.71
2023-05-07T10:13:10.897Z,1025.72
2023-05-07T10:14:10.774Z,1025.74
2023-05-07T10:15:10.949Z,1025.76
2023-05-07T10:16:10.772Z,1025.74
2023-05-07T10:17:10.935Z,1025.76
2023-05-07T10:18:10.963Z,1025.71
2023-05-07T10:19:10.785Z,1025.74
2023-05-07T10:20:10.766Z,1025.7
2023-05-07T10:21:16.732Z,1025.75
2023-05-07T10:22:15.685Z,1025.74
2023-05-07T10:23:15.689Z,1025.71
2023-05-07T10:24:15.695Z,1025.73
2023-05-07T10:25:15.687Z,1025.74
2023-05-07T10:26:15.667Z,1025.72
2023-05-07T10:27:15.675Z,1025.76
2023-05-07T10:28:15.675Z,1025.69
2023-05-07T10:29:15.665Z,1025.69
2023-05-07T10:30:15.676Z,1025.73
2023-05-07T10:31:15.741Z,1025.71
2023-05-07T10:32:15.676Z,1025.75
2023-05-07T10:33:15.712Z,1025.71
2023-05-07T10:34:15.666Z,1025.72
2023-05-07T10:35:15.693Z,1025.75
2023-05-07T10:36:15.675Z,1025.78
2023-05-07T10:37:15.673Z,1025.79
2023-05-07T10:38:15.699Z,1025.79
2023-05-07T10:39:15.674Z,1025.73
2023-05-07T10:40:15.672Z,1025.74
2023-05-07T10:41:15.691Z,1025.76
2023-05-07T10:42:15.667Z,1025.71
2023-05-07T10:43:15.680Z,1025.76
2023-05-07T10:44:15.674Z,1025.75
2023-05-07T10:45:15.698Z,1025.69
2023-05-07T10:46:15.752Z,1025.7
2023-05-07T10:47:15.665Z,1025.7
2023-05-07T10:49:15.667Z,1025.7
2023-05-07T10:50:15.663Z,1025.72
2023-05-07T10:51:15.667Z,1025.74
2023-05-07T10:52:15.665Z,1025.73
2023-05-07T10:53:15.675Z,1025.68
2023-05-07T10:54:15.661Z,1025.71
2023-05-07T10:55:15.687Z,1025.73
2023-05-07T10:56:15.665Z,1025.7
2023-05-07T10:57:15.659Z,1025.71
2023-05-07T10:58:30.108Z,1025.73
2023-05-07T10:59:15.659Z,1025.75
2023-05-07T11:00:16.896Z,1025.76
2023-05-07T11:01:15.718Z,1025.8
2023-05-07T11:02:15.775Z,1025.83
2023-05-07T11:03:15.674Z,1025.83
2023-05-07T11:04:15.662Z,1025.82
2023-05-07T11:05:15.706Z,1025.84
2023-05-07T11:06:15.657Z,1025.83
2023-05-07T11:07:15.676Z,1025.85
2023-05-07T11:08:15.667Z,1025.8
2023-05-07T11:09:15.658Z,1025.84
2023-05-07T11:10:15.647Z,1025.83
2023-05-07T11:11:15.661Z,1025.84
2023-05-07T11:12:15.666Z,1025.83
2023-05-07T11:13:15.724Z,1025.86
2023-05-07T11:14:15.667Z,1025.86
2023-05-07T11:15:15.677Z,1025.9
2023-05-07T11:16:15.714Z,1025.84
2023-05-07T11:17:15.668Z,1025.83
2023-05-07T11:18:15.679Z,1025.83
2023-05-07T11:19:15.652Z,1025.82
2023-05-07T11:20:15.651Z,1025.84
2023-05-07T11:21:15.659Z,1025.82
2023-05-07T11:22:15.656Z,1025.86
2023-05-07T11:23:15.668Z,1025.86
2023-05-07T11:24:15.661Z,1025.87
2023-05-07T11:25:15.664Z,1025.86
2023-05-07T11:26:15.678Z,1025.95
2023-05-07T11:27:15.648Z,1025.95
2023-05-07T11:28:15.675Z,1025.99
2023-05-07T11:29:15.661Z,1025.94
2023-05-07T11:30:15.663Z,1025.99
2023-05-07T11:31:15.691Z,1025.98
2023-05-07T11:32:15.695Z,1025.97
2023-05-07T11:33:15.749Z,1025.94
2023-05-07T11:34:15.670Z,1025.97
2023-05-07T11:35:15.668Z,1025.91
2023-05-07T11:36:15.662Z,1025.92
2023-05-07T11:37:15.654Z,1025.91
2023-05-07T11:38:15.675Z,1025.91
2023-05-07T11:39:15.659Z,1025.91
2023-05-07T11:40:15.651Z,1025.92
2023-05-07T11:41:15.653Z,1025.95
2023-05-07T11:42:15.646Z,1025.92
2023-05-07T11:43:15.679Z,1025.9
2023-05-07T11:44:15.642Z,1025.97
2023-05-07T11:45:15.681Z,1025.99
2023-05-07T11:46:15.657Z,1025.99
2023-05-07T11:47:15.642Z,1026
2023-05-07T11:48:15.687Z,1025.99
2023-05-07T11:49:15.656Z,1025.96
2023-05-07T11:50:15.649Z,1025.98
2023-05-07T11:51:15.646Z,1026.02
2023-05-07T11:52:15.668Z,1025.98
2023-05-07T11:53:15.677Z,1026.02
2023-05-07T11:54:15.667Z,1026.01
2023-05-07T11:55:15.662Z,1026.04
2023-05-07T11:56:15.665Z,1026.03
2023-05-07T11:57:15.688Z,1026.07
2023-05-07T11:58:15.684Z,1026.06
2023-05-07T11:59:15.670Z,1026.05
2023-05-07T12:00:15.687Z,1026.04
2023-05-07T12:01:15.665Z,1026.07
2023-05-07T12:02:15.717Z,1026.15
2023-05-07T12:03:15.766Z,1026.12
2023-05-07T12:04:15.890Z,1026.07
2023-05-07T12:05:15.716Z,1026.08
2023-05-07T12:06:15.671Z,1026.09
2023-05-07T12:07:15.662Z,1026.09
2023-05-07T12:08:15.684Z,1026.17
2023-05-07T12:09:15.649Z,1026.17